sensor_id;sensor_type;location;lat;lon;timestamp;temperature;humidity
56861;DHT22;42744;51.094;3.490;2023-07-13T00:02:17;16.00;99.90
56861;DHT22;42744;51.094;3.490;2023-07-13T00:04:43;16.00;99.90
56861;DHT22;42744;51.094;3.490;2023-07-13T00:07:09;16.00;99.90
56861;DHT22;42744;51.094;3.490;2023-07-13T00:09:35;16.00;99.90
56861;DHT22;42744;51.094;3.490;2023-07-13T00:12:02;15.90;99.90
56861;DHT22;42744;51.094;3.490;2023-07-13T00:14:29;15.90;99.90
56861;DHT22;42744;51.094;3.490;2023-07-13T00:16:55;15.90;99.90
56861;DHT22;42744;51.094;3.490;2023-07-13T00:19:22;15.90;99.90
56861;DHT22;42744;51.094;3.490;2023-07-13T00:21:48;15.80;99.90
56861;DHT22;42744;51.094;3.490;2023-07-13T00:24:16;15.80;99.90
56861;DHT22;42744;51.094;3.490;2023-07-13T00:26:48;15.80;99.90
56861;DHT22;42744;51.094;3.490;2023-07-13T00:29:14;15.70;99.90
56861;DHT22;42744;51.094;3.490;2023-07-13T00:31:40;15.70;99.90
56861;DHT22;42744;51.094;3.490;2023-07-13T00:34:06;15.70;99.90
56861;DHT22;42744;51.094;3.490;2023-07-13T00:36:32;15.70;99.90
56861;DHT22;42744;51.094;3.490;2023-07-13T00:38:58;15.70;99.90
56861;DHT22;42744;51.094;3.490;2023-07-13T00:41:24;15.60;99.90
56861;DHT22;42744;51.094;3.490;2023-07-13T00:43:50;15.60;99.90
56861;DHT22;42744;51.094;3.490;2023-07-13T00:46:34;15.60;99.90
56861;DHT22;42744;51.094;3.490;2023-07-13T00:49:05;15.60;99.90
56861;DHT22;42744;51.094;3.490;2023-07-13T00:51:40;15.50;99.90
56861;DHT22;42744;51.094;3.490;2023-07-13T00:54:11;15.60;99.90
56861;DHT22;42744;51.094;3.490;2023-07-13T00:56:40;15.60;99.90
56861;DHT22;42744;51.094;3.490;2023-07-13T00:59:08;15.50;99.90
56861;DHT22;42744;51.094;3.490;2023-07-13T01:01:36;15.50;99.90
56861;DHT22;42744;51.094;3.490;2023-07-13T01:04:03;15.50;99.90
56861;DHT22;42744;51.094;3.490;2023-07-13T01:06:29;15.50;99.90
56861;DHT22;42744;51.094;3.490;2023-07-13T01:08:59;15.50;99.90
56861;DHT22;42744;51.094;3.490;2023-07-13T01:11:26;15.40;99.90
56861;DHT22;42744;51.094;3.490;2023-07-13T01:13:52;15.40;99.90
56861;DHT22;42744;51.094;3.490;2023-07-13T01:16:25;15.30;99.90
56861;DHT22;42744;51.094;3.490;2023-07-13T01:18:52;15.30;99.90
56861;DHT22;42744;51.094;3.490;2023-07-13T01:21:18;15.40;99.90
56861;DHT22;42744;51.094;3.490;2023-07-13T01:23:45;15.30;99.90
56861;DHT22;42744;51.094;3.490;2023-07-13T01:26:11;15.30;99.90
56861;DHT22;42744;51.094;3.490;2023-07-13T01:28:37;15.30;99.90
56861;DHT22;42744;51.094;3.490;2023-07-13T01:31:07;15.20;99.90
56861;DHT22;42744;51.094;3.490;2023-07-13T01:33:37;15.20;99.90
56861;DHT22;42744;51.094;3.490;2023-07-13T01:36:03;15.20;99.90
56861;DHT22;42744;51.094;3.490;2023-07-13T01:38:29;15.20;99.90
56861;DHT22;42744;51.094;3.490;2023-07-13T01:40:55;15.20;99.90
56861;DHT22;42744;51.094;3.490;2023-07-13T01:43:23;15.20;99.90
56861;DHT22;42744;51.094;3.490;2023-07-13T01:45:49;15.20;99.90
56861;DHT22;42744;51.094;3.490;2023-07-13T01:48:15;15.20;99.90
56861;DHT22;42744;51.094;3.490;2023-07-13T01:50:41;15.20;99.90
56861;DHT22;42744;51.094;3.490;2023-07-13T01:53:08;15.10;99.90
56861;DHT22;42744;51.094;3.490;2023-07-13T01:55:35;15.20;99.90
56861;DHT22;42744;51.094;3.490;2023-07-13T01:58:02;15.20;99.90
56861;DHT22;42744;51.094;3.490;2023-07-13T02:00:29;15.20;99.90
56861;DHT22;42744;51.094;3.490;2023-07-13T02:02:55;15.20;99.90
56861;DHT22;42744;51.094;3.490;2023-07-13T02:05:21;15.30;99.90
56861;DHT22;42744;51.094;3.490;2023-07-13T02:07:48;15.20;99.90
56861;DHT22;42744;51.094;3.490;2023-07-13T02:10:15;15.20;99.90
56861;DHT22;42744;51.094;3.490;2023-07-13T02:12:42;15.30;99.90
56861;DHT22;42744;51.094;3.490;2023-07-13T02:15:08;15.20;99.90
56861;DHT22;42744;51.094;3.490;2023-07-13T02:17:35;15.20;99.90
56861;DHT22;42744;51.094;3.490;2023-07-13T02:20:02;15.20;99.90
56861;DHT22;42744;51.094;3.490;2023-07-13T02:22:30;15.20;99.90
56861;DHT22;42744;51.094;3.490;2023-07-13T02:24:56;15.20;99.90
56861;DHT22;42744;51.094;3.490;2023-07-13T02:27:22;15.10;99.90
56861;DHT22;42744;51.094;3.490;2023-07-13T02:29:49;15.10;99.90
56861;DHT22;42744;51.094;3.490;2023-07-13T02:32:17;15.10;99.90
56861;DHT22;42744;51.094;3.490;2023-07-13T02:34:43;15.10;99.90
56861;DHT22;42744;51.094;3.490;2023-07-13T02:37:10;15.10;99.90
56861;DHT22;42744;51.094;3.490;2023-07-13T02:39:36;15.10;99.90
56861;DHT22;42744;51.094;3.490;2023-07-13T02:42:03;15.10;99.90
56861;DHT22;42744;51.094;3.490;2023-07-13T02:44:29;15.10;99.90
56861;DHT22;42744;51.094;3.490;2023-07-13T02:46:55;15.10;99.90
56861;DHT22;42744;51.094;3.490;2023-07-13T02:49:21;15.00;99.90
56861;DHT22;42744;51.094;3.490;2023-07-13T02:51:47;15.00;99.90
56861;DHT22;42744;51.094;3.490;2023-07-13T02:54:13;15.00;99.90
56861;DHT22;42744;51.094;3.490;2023-07-13T02:56:40;14.90;99.90
56861;DHT22;42744;51.094;3.490;2023-07-13T02:59:07;15.00;99.90
56861;DHT22;42744;51.094;3.490;2023-07-13T03:01:33;15.00;99.90
56861;DHT22;42744;51.094;3.490;2023-07-13T03:04:01;14.90;99.90
56861;DHT22;42744;51.094;3.490;2023-07-13T03:06:28;14.90;99.90
56861;DHT22;42744;51.094;3.490;2023-07-13T03:08:56;14.90;99.90
56861;DHT22;42744;51.094;3.490;2023-07-13T03:11:22;15.00;99.90
56861;DHT22;42744;51.094;3.490;2023-07-13T03:13:49;14.90;99.90
56861;DHT22;42744;51.094;3.490;2023-07-13T03:16:15;14.90;99.90
56861;DHT22;42744;51.094;3.490;2023-07-13T03:18:42;14.80;99.90
56861;DHT22;42744;51.094;3.490;2023-07-13T03:21:09;14.80;99.90
56861;DHT22;42744;51.094;3.490;2023-07-13T03:23:36;14.80;99.90
56861;DHT22;42744;51.094;3.490;2023-07-13T03:26:10;14.80;99.90
56861;DHT22;42744;51.094;3.490;2023-07-13T03:28:39;14.80;99.90
56861;DHT22;42744;51.094;3.490;2023-07-13T03:31:17;14.70;99.90
56861;DHT22;42744;51.094;3.490;2023-07-13T03:33:45;14.70;99.90
56861;DHT22;42744;51.094;3.490;2023-07-13T03:36:20;14.70;99.90
56861;DHT22;42744;51.094;3.490;2023-07-13T03:38:53;14.70;99.90
56861;DHT22;42744;51.094;3.490;2023-07-13T03:41:21;14.80;99.90
56861;DHT22;42744;51.094;3.490;2023-07-13T03:43:49;14.80;99.90
56861;DHT22;42744;51.094;3.490;2023-07-13T03:46:16;14.90;99.90
56861;DHT22;42744;51.094;3.490;2023-07-13T03:48:44;14.90;99.90
56861;DHT22;42744;51.094;3.490;2023-07-13T03:51:12;14.90;99.90
56861;DHT22;42744;51.094;3.490;2023-07-13T03:53:41;15.00;99.90
56861;DHT22;42744;51.094;3.490;2023-07-13T03:56:09;15.00;99.90
56861;DHT22;42744;51.094;3.490;2023-07-13T03:58:40;15.00;99.90
56861;DHT22;42744;51.094;3.490;2023-07-13T04:01:09;15.10;99.90
56861;DHT22;42744;51.094;3.490;2023-07-13T04:03:36;15.10;99.90
56861;DHT22;42744;51.094;3.490;2023-07-13T04:06:04;15.20;99.90
56861;DHT22;42744;51.094;3.490;2023-07-13T04:08:33;15.20;99.90
56861;DHT22;42744;51.094;3.490;2023-07-13T04:11:00;15.20;99.90
56861;DHT22;42744;51.094;3.490;2023-07-13T04:13:30;15.20;99.90
56861;DHT22;42744;51.094;3.490;2023-07-13T04:15:59;15.30;99.90
56861;DHT22;42744;51.094;3.490;2023-07-13T04:18:25;15.30;99.90
56861;DHT22;42744;51.094;3.490;2023-07-13T04:20:51;15.30;99.90
56861;DHT22;42744;51.094;3.490;2023-07-13T04:23:17;15.30;99.90
56861;DHT22;42744;51.094;3.490;2023-07-13T04:25:45;15.30;99.90
56861;DHT22;42744;51.094;3.490;2023-07-13T04:28:11;15.30;99.90
56861;DHT22;42744;51.094;3.490;2023-07-13T04:30:37;15.40;99.90
56861;DHT22;42744;51.094;3.490;2023-07-13T04:33:03;15.40;99.90
56861;DHT22;42744;51.094;3.490;2023-07-13T04:35:30;15.50;99.90
56861;DHT22;42744;51.094;3.490;2023-07-13T04:37:57;15.50;99.90
56861;DHT22;42744;51.094;3.490;2023-07-13T04:40:23;15.50;99.90
56861;DHT22;42744;51.094;3.490;2023-07-13T04:42:49;15.50;99.90
56861;DHT22;42744;51.094;3.490;2023-07-13T04:45:15;15.60;99.90
56861;DHT22;42744;51.094;3.490;2023-07-13T04:47:41;15.60;99.90
56861;DHT22;42744;51.094;3.490;2023-07-13T04:50:08;15.60;99.90
56861;DHT22;42744;51.094;3.490;2023-07-13T04:52:36;15.60;99.90
56861;DHT22;42744;51.094;3.490;2023-07-13T04:55:03;15.70;99.90
56861;DHT22;42744;51.094;3.490;2023-07-13T04:57:29;15.70;99.90
56861;DHT22;42744;51.094;3.490;2023-07-13T04:59:54;15.70;99.90
56861;DHT22;42744;51.094;3.490;2023-07-13T05:02:21;15.70;99.90
56861;DHT22;42744;51.094;3.490;2023-07-13T05:04:48;15.80;99.90
56861;DHT22;42744;51.094;3.490;2023-07-13T05:07:14;15.80;99.90
56861;DHT22;42744;51.094;3.490;2023-07-13T05:09:40;15.80;99.90
56861;DHT22;42744;51.094;3.490;2023-07-13T05:12:08;15.90;99.90
56861;DHT22;42744;51.094;3.490;2023-07-13T05:14:40;15.90;99.90
56861;DHT22;42744;51.094;3.490;2023-07-13T05:17:07;15.90;99.90
56861;DHT22;42744;51.094;3.490;2023-07-13T05:19:33;16.00;99.90
56861;DHT22;42744;51.094;3.490;2023-07-13T05:21:59;16.00;99.90
56861;DHT22;42744;51.094;3.490;2023-07-13T05:24:25;16.10;99.90
56861;DHT22;42744;51.094;3.490;2023-07-13T05:26:51;16.10;99.90
56861;DHT22;42744;51.094;3.490;2023-07-13T05:29:17;16.10;99.90
56861;DHT22;42744;51.094;3.490;2023-07-13T05:31:44;16.20;99.90
56861;DHT22;42744;51.094;3.490;2023-07-13T05:34:10;16.20;99.90
56861;DHT22;42744;51.094;3.490;2023-07-13T05:36:35;16.30;99.90
56861;DHT22;42744;51.094;3.490;2023-07-13T05:39:03;16.30;99.90
56861;DHT22;42744;51.094;3.490;2023-07-13T05:41:30;16.30;99.90
56861;DHT22;42744;51.094;3.490;2023-07-13T05:43:55;16.40;99.90
56861;DHT22;42744;51.094;3.490;2023-07-13T05:46:22;16.40;99.90
56861;DHT22;42744;51.094;3.490;2023-07-13T05:48:48;16.40;99.90
56861;DHT22;42744;51.094;3.490;2023-07-13T05:51:14;16.50;99.90
56861;DHT22;42744;51.094;3.490;2023-07-13T05:53:41;16.50;99.90
56861;DHT22;42744;51.094;3.490;2023-07-13T05:56:07;16.60;99.90
56861;DHT22;42744;51.094;3.490;2023-07-13T05:58:33;16.70;99.90
56861;DHT22;42744;51.094;3.490;2023-07-13T06:01:05;16.80;99.90
56861;DHT22;42744;51.094;3.490;2023-07-13T06:03:32;16.80;99.90
56861;DHT22;42744;51.094;3.490;2023-07-13T06:05:58;16.90;99.90
56861;DHT22;42744;51.094;3.490;2023-07-13T06:08:26;16.90;99.90
56861;DHT22;42744;51.094;3.490;2023-07-13T06:10:52;17.00;99.90
56861;DHT22;42744;51.094;3.490;2023-07-13T06:13:18;17.10;99.90
56861;DHT22;42744;51.094;3.490;2023-07-13T06:15:49;17.10;99.90
56861;DHT22;42744;51.094;3.490;2023-07-13T06:18:15;17.20;99.90
56861;DHT22;42744;51.094;3.490;2023-07-13T06:20:41;17.30;99.90
56861;DHT22;42744;51.094;3.490;2023-07-13T06:23:07;17.40;99.90
56861;DHT22;42744;51.094;3.490;2023-07-13T06:25:33;17.40;99.90
56861;DHT22;42744;51.094;3.490;2023-07-13T06:28:00;17.40;99.90
56861;DHT22;42744;51.094;3.490;2023-07-13T06:30:26;17.50;99.90
56861;DHT22;42744;51.094;3.490;2023-07-13T06:32:52;17.60;99.90
56861;DHT22;42744;51.094;3.490;2023-07-13T06:35:18;17.70;99.90
56861;DHT22;42744;51.094;3.490;2023-07-13T06:37:44;17.80;99.90
56861;DHT22;42744;51.094;3.490;2023-07-13T06:40:11;17.80;99.90
56861;DHT22;42744;51.094;3.490;2023-07-13T06:42:37;17.90;99.90
56861;DHT22;42744;51.094;3.490;2023-07-13T06:45:05;18.00;99.90
56861;DHT22;42744;51.094;3.490;2023-07-13T06:47:31;18.10;99.90
56861;DHT22;42744;51.094;3.490;2023-07-13T06:49:57;18.10;99.90
56861;DHT22;42744;51.094;3.490;2023-07-13T06:52:23;18.10;99.90
56861;DHT22;42744;51.094;3.490;2023-07-13T06:54:49;18.20;99.90
56861;DHT22;42744;51.094;3.490;2023-07-13T06:57:15;18.30;99.90
56861;DHT22;42744;51.094;3.490;2023-07-13T06:59:41;18.30;99.90
56861;DHT22;42744;51.094;3.490;2023-07-13T07:02:10;18.40;99.90
56861;DHT22;42744;51.094;3.490;2023-07-13T07:04:36;18.40;99.90
56861;DHT22;42744;51.094;3.490;2023-07-13T07:07:02;18.40;99.90
56861;DHT22;42744;51.094;3.490;2023-07-13T07:09:28;18.50;99.90
56861;DHT22;42744;51.094;3.490;2023-07-13T07:11:55;18.50;99.90
56861;DHT22;42744;51.094;3.490;2023-07-13T07:14:21;18.60;99.90
56861;DHT22;42744;51.094;3.490;2023-07-13T07:16:48;18.60;99.90
56861;DHT22;42744;51.094;3.490;2023-07-13T07:19:14;18.70;99.90
56861;DHT22;42744;51.094;3.490;2023-07-13T07:21:39;18.70;99.90
56861;DHT22;42744;51.094;3.490;2023-07-13T07:24:06;18.70;99.90
56861;DHT22;42744;51.094;3.490;2023-07-13T07:26:33;18.80;99.90
56861;DHT22;42744;51.094;3.490;2023-07-13T07:28:59;18.80;99.90
56861;DHT22;42744;51.094;3.490;2023-07-13T07:31:25;18.80;99.90
56861;DHT22;42744;51.094;3.490;2023-07-13T07:33:51;18.80;99.90
56861;DHT22;42744;51.094;3.490;2023-07-13T07:36:17;18.90;99.90
56861;DHT22;42744;51.094;3.490;2023-07-13T07:38:44;18.80;99.90
56861;DHT22;42744;51.094;3.490;2023-07-13T07:41:10;18.90;99.90
56861;DHT22;42744;51.094;3.490;2023-07-13T07:43:36;18.90;99.90
56861;DHT22;42744;51.094;3.490;2023-07-13T07:46:03;19.00;99.90
56861;DHT22;42744;51.094;3.490;2023-07-13T07:48:29;19.10;99.90
56861;DHT22;42744;51.094;3.490;2023-07-13T07:50:55;19.20;99.90
56861;DHT22;42744;51.094;3.490;2023-07-13T07:53:21;19.30;99.90
56861;DHT22;42744;51.094;3.490;2023-07-13T07:55:48;19.40;99.90
56861;DHT22;42744;51.094;3.490;2023-07-13T07:58:15;19.50;99.90
56861;DHT22;42744;51.094;3.490;2023-07-13T08:00:42;19.50;99.90
56861;DHT22;42744;51.094;3.490;2023-07-13T08:03:08;19.50;99.90
56861;DHT22;42744;51.094;3.490;2023-07-13T08:05:37;19.50;99.90
56861;DHT22;42744;51.094;3.490;2023-07-13T08:08:03;19.60;99.90
56861;DHT22;42744;51.094;3.490;2023-07-13T08:10:30;19.70;99.90
56861;DHT22;42744;51.094;3.490;2023-07-13T08:12:55;19.70;99.90
56861;DHT22;42744;51.094;3.490;2023-07-13T08:15:22;19.70;99.90
56861;DHT22;42744;51.094;3.490;2023-07-13T08:17:49;19.80;99.90
56861;DHT22;42744;51.094;3.490;2023-07-13T08:20:15;19.80;99.90
56861;DHT22;42744;51.094;3.490;2023-07-13T08:22:41;19.90;99.90
56861;DHT22;42744;51.094;3.490;2023-07-13T08:25:08;20.00;99.90
56861;DHT22;42744;51.094;3.490;2023-07-13T08:27:34;20.10;99.90
56861;DHT22;42744;51.094;3.490;2023-07-13T08:30:00;20.20;99.90
56861;DHT22;42744;51.094;3.490;2023-07-13T08:32:26;20.20;99.90
56861;DHT22;42744;51.094;3.490;2023-07-13T08:34:52;20.10;99.90
56861;DHT22;42744;51.094;3.490;2023-07-13T08:37:19;20.20;99.90
56861;DHT22;42744;51.094;3.490;2023-07-13T08:39:45;20.30;99.90
56861;DHT22;42744;51.094;3.490;2023-07-13T08:42:37;20.50;99.90
56861;DHT22;42744;51.094;3.490;2023-07-13T08:45:26;20.70;99.90
56861;DHT22;42744;51.094;3.490;2023-07-13T08:48:00;20.90;99.90
56861;DHT22;42744;51.094;3.490;2023-07-13T08:50:32;20.90;99.90
56861;DHT22;42744;51.094;3.490;2023-07-13T08:53:00;20.90;99.90
56861;DHT22;42744;51.094;3.490;2023-07-13T08:55:31;20.80;99.90
56861;DHT22;42744;51.094;3.490;2023-07-13T08:58:13;20.80;99.90
56861;DHT22;42744;51.094;3.490;2023-07-13T09:04:13;20.90;99.90
56861;DHT22;42744;51.094;3.490;2023-07-13T09:06:39;20.80;99.90
56861;DHT22;42744;51.094;3.490;2023-07-13T09:09:32;20.70;99.90
56861;DHT22;42744;51.094;3.490;2023-07-13T09:12:02;20.70;99.90
56861;DHT22;42744;51.094;3.490;2023-07-13T09:14:42;20.80;99.90
56861;DHT22;42744;51.094;3.490;2023-07-13T09:17:29;21.00;99.90
56861;DHT22;42744;51.094;3.490;2023-07-13T09:20:01;21.20;99.90
56861;DHT22;42744;51.094;3.490;2023-07-13T09:22:33;21.30;99.90
56861;DHT22;42744;51.094;3.490;2023-07-13T09:25:34;21.30;99.90
56861;DHT22;42744;51.094;3.490;2023-07-13T09:33:13;21.70;99.90
56861;DHT22;42744;51.094;3.490;2023-07-13T09:35:40;21.90;99.90
56861;DHT22;42744;51.094;3.490;2023-07-13T09:38:13;21.90;99.90
56861;DHT22;42744;51.094;3.490;2023-07-13T09:41:15;21.90;99.90
56861;DHT22;42744;51.094;3.490;2023-07-13T09:46:35;22.20;99.90
56861;DHT22;42744;51.094;3.490;2023-07-13T09:49:01;22.30;99.90
56861;DHT22;42744;51.094;3.490;2023-07-13T09:51:27;22.50;99.90
56861;DHT22;42744;51.094;3.490;2023-07-13T09:53:53;22.50;99.90
56861;DHT22;42744;51.094;3.490;2023-07-13T09:56:27;22.40;99.90
56861;DHT22;42744;51.094;3.490;2023-07-13T09:58:53;22.30;99.90
56861;DHT22;42744;51.094;3.490;2023-07-13T10:01:37;22.20;99.90
56861;DHT22;42744;51.094;3.490;2023-07-13T10:04:12;22.00;99.90
56861;DHT22;42744;51.094;3.490;2023-07-13T10:06:39;21.90;99.90
56861;DHT22;42744;51.094;3.490;2023-07-13T10:09:09;21.80;99.90
56861;DHT22;42744;51.094;3.490;2023-07-13T10:11:36;21.70;99.90
56861;DHT22;42744;51.094;3.490;2023-07-13T10:14:14;21.60;99.90
56861;DHT22;42744;51.094;3.490;2023-07-13T10:16:43;21.30;99.90
56861;DHT22;42744;51.094;3.490;2023-07-13T10:19:25;21.00;99.90
56861;DHT22;42744;51.094;3.490;2023-07-13T10:21:54;20.60;99.90
56861;DHT22;42744;51.094;3.490;2023-07-13T10:24:26;20.30;99.90
56861;DHT22;42744;51.094;3.490;2023-07-13T10:29:42;19.80;99.90
56861;DHT22;42744;51.094;3.490;2023-07-13T10:32:11;19.60;99.90
56861;DHT22;42744;51.094;3.490;2023-07-13T10:34:39;19.40;99.90
56861;DHT22;42744;51.094;3.490;2023-07-13T10:37:18;19.20;99.90
56861;DHT22;42744;51.094;3.490;2023-07-13T10:39:47;19.00;99.90
56861;DHT22;42744;51.094;3.490;2023-07-13T10:42:24;18.90;99.90
56861;DHT22;42744;51.094;3.490;2023-07-13T10:44:51;18.80;99.90
56861;DHT22;42744;51.094;3.490;2023-07-13T10:47:17;18.70;99.90
56861;DHT22;42744;51.094;3.490;2023-07-13T10:49:44;18.70;99.90
56861;DHT22;42744;51.094;3.490;2023-07-13T10:52:42;18.70;99.90
56861;DHT22;42744;51.094;3.490;2023-07-13T10:55:38;18.70;99.90
56861;DHT22;42744;51.094;3.490;2023-07-13T10:58:24;18.80;99.90
56861;DHT22;42744;51.094;3.490;2023-07-13T11:03:31;19.20;99.90
56861;DHT22;42744;51.094;3.490;2023-07-13T11:06:17;19.40;99.90
56861;DHT22;42744;51.094;3.490;2023-07-13T11:11:33;19.70;99.90
56861;DHT22;42744;51.094;3.490;2023-07-13T11:14:01;19.90;99.90
56861;DHT22;42744;51.094;3.490;2023-07-13T11:16:44;19.90;99.90
56861;DHT22;42744;51.094;3.490;2023-07-13T11:24:59;20.20;99.90
56861;DHT22;42744;51.094;3.490;2023-07-13T11:27:43;20.30;99.90
56861;DHT22;42744;51.094;3.490;2023-07-13T11:30:21;20.40;99.90
56861;DHT22;42744;51.094;3.490;2023-07-13T11:35:58;20.50;99.90
56861;DHT22;42744;51.094;3.490;2023-07-13T11:38:39;20.50;99.90
56861;DHT22;42744;51.094;3.490;2023-07-13T11:41:17;20.40;99.90
56861;DHT22;42744;51.094;3.490;2023-07-13T11:43:45;20.40;99.90
56861;DHT22;42744;51.094;3.490;2023-07-13T11:46:18;20.40;99.90
56861;DHT22;42744;51.094;3.490;2023-07-13T11:48:46;20.50;99.90
56861;DHT22;42744;51.094;3.490;2023-07-13T11:51:29;20.50;99.90
56861;DHT22;42744;51.094;3.490;2023-07-13T11:54:43;20.70;99.90
56861;DHT22;42744;51.094;3.490;2023-07-13T11:57:33;20.90;99.90
56861;DHT22;42744;51.094;3.490;2023-07-13T12:00:15;21.30;99.90
56861;DHT22;42744;51.094;3.490;2023-07-13T12:02:49;21.50;99.90
56861;DHT22;42744;51.094;3.490;2023-07-13T12:05:18;21.90;99.90
56861;DHT22;42744;51.094;3.490;2023-07-13T12:07:44;22.40;99.90
56861;DHT22;42744;51.094;3.490;2023-07-13T12:12:52;22.70;99.90
56861;DHT22;42744;51.094;3.490;2023-07-13T12:15:19;22.80;99.90
56861;DHT22;42744;51.094;3.490;2023-07-13T12:17:46;22.80;99.90
56861;DHT22;42744;51.094;3.490;2023-07-13T12:20:27;22.70;99.90
56861;DHT22;42744;51.094;3.490;2023-07-13T12:22:54;22.70;99.90
56861;DHT22;42744;51.094;3.490;2023-07-13T12:25:22;22.60;99.90
56861;DHT22;42744;51.094;3.490;2023-07-13T12:27:49;22.50;99.90
56861;DHT22;42744;51.094;3.490;2023-07-13T12:30:32;22.50;99.90
56861;DHT22;42744;51.094;3.490;2023-07-13T12:33:07;22.60;99.90
56861;DHT22;42744;51.094;3.490;2023-07-13T12:35:49;22.90;99.90
56861;DHT22;42744;51.094;3.490;2023-07-13T12:38:16;23.40;99.90
56861;DHT22;42744;51.094;3.490;2023-07-13T12:40:43;23.50;99.90
56861;DHT22;42744;51.094;3.490;2023-07-13T12:43:13;23.40;99.90
56861;DHT22;42744;51.094;3.490;2023-07-13T12:46:00;23.30;99.90
56861;DHT22;42744;51.094;3.490;2023-07-13T12:48:28;23.30;99.90
56861;DHT22;42744;51.094;3.490;2023-07-13T12:50:55;23.50;99.90
56861;DHT22;42744;51.094;3.490;2023-07-13T12:53:29;23.60;99.90
56861;DHT22;42744;51.094;3.490;2023-07-13T12:55:59;23.70;99.90
56861;DHT22;42744;51.094;3.490;2023-07-13T12:58:36;23.60;99.90
56861;DHT22;42744;51.094;3.490;2023-07-13T13:01:04;23.30;99.90
56861;DHT22;42744;51.094;3.490;2023-07-13T13:03:46;23.20;99.90
56861;DHT22;42744;51.094;3.490;2023-07-13T13:08:52;23.10;99.90
56861;DHT22;42744;51.094;3.490;2023-07-13T13:11:26;23.40;99.90
56861;DHT22;42744;51.094;3.490;2023-07-13T13:13:53;23.80;99.90
56861;DHT22;42744;51.094;3.490;2023-07-13T13:16:33;23.90;99.90
56861;DHT22;42744;51.094;3.490;2023-07-13T13:19:15;23.70;99.90
56861;DHT22;42744;51.094;3.490;2023-07-13T13:21:43;23.70;99.90
56861;DHT22;42744;51.094;3.490;2023-07-13T13:24:12;23.60;99.90
56861;DHT22;42744;51.094;3.490;2023-07-13T13:26:38;23.50;99.90
56861;DHT22;42744;51.094;3.490;2023-07-13T13:29:17;23.40;99.90
56861;DHT22;42744;51.094;3.490;2023-07-13T13:31:45;23.70;99.90
56861;DHT22;42744;51.094;3.490;2023-07-13T13:34:13;24.10;99.90
56861;DHT22;42744;51.094;3.490;2023-07-13T13:36:40;24.70;99.90
56861;DHT22;42744;51.094;3.490;2023-07-13T13:39:23;24.80;99.90
56861;DHT22;42744;51.094;3.490;2023-07-13T13:41:51;24.90;99.50
56861;DHT22;42744;51.094;3.490;2023-07-13T13:44:19;24.70;99.90
56861;DHT22;42744;51.094;3.490;2023-07-13T13:46:49;24.90;99.90
56861;DHT22;42744;51.094;3.490;2023-07-13T13:49:21;25.30;99.70
56861;DHT22;42744;51.094;3.490;2023-07-13T13:51:48;25.40;99.00
56861;DHT22;42744;51.094;3.490;2023-07-13T13:54:16;25.50;97.90
56861;DHT22;42744;51.094;3.490;2023-07-13T13:56:43;25.30;97.70
56861;DHT22;42744;51.094;3.490;2023-07-13T13:59:10;24.90;98.80
56861;DHT22;42744;51.094;3.490;2023-07-13T14:01:37;24.90;98.20
56861;DHT22;42744;51.094;3.490;2023-07-13T14:04:04;25.40;99.40
56861;DHT22;42744;51.094;3.490;2023-07-13T14:06:31;25.60;98.80
56861;DHT22;42744;51.094;3.490;2023-07-13T14:08:57;25.60;97.20
56861;DHT22;42744;51.094;3.490;2023-07-13T14:11:24;25.60;96.40
56861;DHT22;42744;51.094;3.490;2023-07-13T14:13:53;25.40;96.40
56861;DHT22;42744;51.094;3.490;2023-07-13T14:16:21;25.30;97.20
56861;DHT22;42744;51.094;3.490;2023-07-13T14:18:49;25.50;95.80
56861;DHT22;42744;51.094;3.490;2023-07-13T14:21:20;25.70;95.40
56861;DHT22;42744;51.094;3.490;2023-07-13T14:23:47;26.00;95.00
56861;DHT22;42744;51.094;3.490;2023-07-13T14:26:17;26.30;95.30
56861;DHT22;42744;51.094;3.490;2023-07-13T14:28:48;26.40;95.30
56861;DHT22;42744;51.094;3.490;2023-07-13T14:31:16;26.50;94.90
56861;DHT22;42744;51.094;3.490;2023-07-13T14:33:43;26.40;94.20
56861;DHT22;42744;51.094;3.490;2023-07-13T14:36:34;26.50;93.80
56861;DHT22;42744;51.094;3.490;2023-07-13T14:39:12;26.50;91.80
56861;DHT22;42744;51.094;3.490;2023-07-13T14:41:38;26.20;93.00
56861;DHT22;42744;51.094;3.490;2023-07-13T14:44:15;26.10;92.60
56861;DHT22;42744;51.094;3.490;2023-07-13T14:46:42;26.10;93.40
56861;DHT22;42744;51.094;3.490;2023-07-13T14:49:35;26.30;92.90
56861;DHT22;42744;51.094;3.490;2023-07-13T14:52:11;26.20;93.80
56861;DHT22;42744;51.094;3.490;2023-07-13T14:54:38;25.90;92.80
56861;DHT22;42744;51.094;3.490;2023-07-13T14:57:14;25.60;92.40
56861;DHT22;42744;51.094;3.490;2023-07-13T14:59:41;25.30;92.20
56861;DHT22;42744;51.094;3.490;2023-07-13T15:02:28;25.40;93.10
56861;DHT22;42744;51.094;3.490;2023-07-13T15:04:56;25.70;93.70
56861;DHT22;42744;51.094;3.490;2023-07-13T15:07:22;26.00;93.20
56861;DHT22;42744;51.094;3.490;2023-07-13T15:09:49;26.30;91.90
56861;DHT22;42744;51.094;3.490;2023-07-13T15:12:17;26.20;91.00
56861;DHT22;42744;51.094;3.490;2023-07-13T15:14:43;26.20;91.20
56861;DHT22;42744;51.094;3.490;2023-07-13T15:17:36;26.30;90.80
56861;DHT22;42744;51.094;3.490;2023-07-13T15:20:11;26.10;92.20
56861;DHT22;42744;51.094;3.490;2023-07-13T15:22:41;26.20;91.80
56861;DHT22;42744;51.094;3.490;2023-07-13T15:25:19;26.30;90.70
56861;DHT22;42744;51.094;3.490;2023-07-13T15:27:45;26.40;90.20
56861;DHT22;42744;51.094;3.490;2023-07-13T15:30:12;26.50;90.30
56861;DHT22;42744;51.094;3.490;2023-07-13T15:32:39;26.60;91.40
56861;DHT22;42744;51.094;3.490;2023-07-13T15:35:09;26.60;90.60
56861;DHT22;42744;51.094;3.490;2023-07-13T15:37:38;26.20;91.90
56861;DHT22;42744;51.094;3.490;2023-07-13T15:40:05;25.80;90.90
56861;DHT22;42744;51.094;3.490;2023-07-13T15:42:32;25.80;91.20
56861;DHT22;42744;51.094;3.490;2023-07-13T15:44:58;26.00;90.80
56861;DHT22;42744;51.094;3.490;2023-07-13T15:47:27;26.10;91.50
56861;DHT22;42744;51.094;3.490;2023-07-13T15:49:52;26.30;90.30
56861;DHT22;42744;51.094;3.490;2023-07-13T15:52:22;26.50;89.20
56861;DHT22;42744;51.094;3.490;2023-07-13T15:54:49;26.50;89.10
56861;DHT22;42744;51.094;3.490;2023-07-13T15:57:16;26.60;89.70
56861;DHT22;42744;51.094;3.490;2023-07-13T15:59:43;26.50;88.80
56861;DHT22;42744;51.094;3.490;2023-07-13T16:02:20;26.40;88.70
56861;DHT22;42744;51.094;3.490;2023-07-13T16:04:47;26.30;89.30
56861;DHT22;42744;51.094;3.490;2023-07-13T16:07:15;26.30;89.80
56861;DHT22;42744;51.094;3.490;2023-07-13T16:09:45;26.40;90.10
56861;DHT22;42744;51.094;3.490;2023-07-13T16:12:13;26.40;89.00
56861;DHT22;42744;51.094;3.490;2023-07-13T16:14:41;26.30;89.20
56861;DHT22;42744;51.094;3.490;2023-07-13T16:17:11;26.10;87.60
56861;DHT22;42744;51.094;3.490;2023-07-13T16:19:38;26.10;88.90